createdAt,value
2023-02-19T00:01:39.118Z,81.43
2023-02-19T00:04:11.462Z,81.36
2023-02-19T00:06:42.221Z,81.44
2023-02-19T00:09:13.540Z,81.26
2023-02-19T00:11:44.294Z,81.26
2023-02-19T00:14:18.428Z,81.08
2023-02-19T00:16:49.093Z,81.22
2023-02-19T00:19:21.910Z,81.02
2023-02-19T00:21:53.331Z,81.09
2023-02-19T00:24:24.279Z,81.14
2023-02-19T00:26:54.638Z,81.13
2023-02-19T00:29:25.066Z,81.10
2023-02-19T00:31:55.595Z,81.00
2023-02-19T00:34:25.996Z,80.96
2023-02-19T00:36:56.288Z,81.01
2023-02-19T00:39:26.650Z,81.01
2023-02-19T00:41:57.232Z,80.96
2023-02-19T00:44:27.548Z,80.89
2023-02-19T00:46:57.842Z,80.83
2023-02-19T00:49:28.185Z,80.77
2023-02-19T00:51:58.541Z,80.53
2023-02-19T00:54:29.095Z,80.46
2023-02-19T00:56:59.580Z,80.49
2023-02-19T00:59:30.009Z,80.61
2023-02-19T01:02:00.406Z,80.38
2023-02-19T01:04:30.874Z,80.50
2023-02-19T01:07:01.335Z,80.50
2023-02-19T01:09:32.294Z,80.53
2023-02-19T01:12:02.855Z,80.33
2023-02-19T01:14:33.437Z,80.34
2023-02-19T01:17:04.435Z,80.34
2023-02-19T01:19:34.862Z,80.32
2023-02-19T01:22:05.229Z,80.31
2023-02-19T01:24:35.560Z,80.25
2023-02-19T01:27:06.212Z,80.11
2023-02-19T01:29:36.960Z,80.11
2023-02-19T01:32:07.450Z,80.32
2023-02-19T01:34:37.931Z,80.40
2023-02-19T01:37:12.100Z,80.60
2023-02-19T01:39:43.514Z,80.87
2023-02-19T01:42:17.557Z,80.89
2023-02-19T01:52:03.781Z,80.77
2023-02-19T01:54:35.966Z,80.71
2023-02-19T01:57:08.221Z,80.75
2023-02-19T01:59:39.319Z,80.73
2023-02-19T02:02:09.760Z,80.69
2023-02-19T02:04:40.274Z,80.69
2023-02-19T02:07:25.198Z,80.80
2023-02-19T02:10:13.920Z,80.88
2023-02-19T02:12:44.257Z,80.87
2023-02-19T02:15:15.006Z,80.91
2023-02-19T02:17:54.283Z,80.97
2023-02-19T02:20:36.434Z,81.36
2023-02-19T02:23:13.867Z,81.90
2023-02-19T02:25:59.104Z,82.18
2023-02-19T02:28:46.391Z,82.65
2023-02-19T02:31:19.503Z,83.06
2023-02-19T02:33:55.693Z,83.50
2023-02-19T02:36:28.305Z,83.64
2023-02-19T02:38:59.862Z,83.95
2023-02-19T02:41:30.694Z,84.13
2023-02-19T02:44:01.075Z,84.10
2023-02-19T02:46:35.481Z,84.05
2023-02-19T02:49:07.896Z,84.00
2023-02-19T02:51:41.521Z,84.25
2023-02-19T02:54:37.429Z,84.32
2023-02-19T02:57:14.685Z,84.29
2023-02-19T02:59:57.732Z,84.37
2023-02-19T03:02:31.015Z,84.23
2023-02-19T03:05:22.295Z,84.03
2023-02-19T03:07:56.291Z,83.85
2023-02-19T03:10:29.795Z,83.66
2023-02-19T03:13:19.168Z,83.43
2023-02-19T03:16:15.172Z,83.17
2023-02-19T03:19:06.855Z,83.01
2023-02-19T03:21:39.071Z,82.98
2023-02-19T03:24:29.940Z,82.86
2023-02-19T03:27:02.359Z,82.99
2023-02-19T03:29:38.760Z,82.91
2023-02-19T03:32:12.716Z,82.78
2023-02-19T03:34:45.335Z,82.49
2023-02-19T03:37:21.767Z,82.26
2023-02-19T03:39:52.693Z,82.18
2023-02-19T03:42:31.496Z,82.18
2023-02-19T03:45:10.746Z,82.01
2023-02-19T03:47:49.019Z,81.95
2023-02-19T03:50:21.164Z,82.02
2023-02-19T03:52:56.979Z,81.89
2023-02-19T03:55:31.296Z,81.75
2023-02-19T03:58:07.045Z,81.53
2023-02-19T04:00:41.531Z,81.50
2023-02-19T04:03:16.803Z,81.73
2023-02-19T04:05:49.718Z,81.94
2023-02-19T04:08:21.607Z,82.34
2023-02-19T04:10:56.911Z,82.50
2023-02-19T04:13:31.725Z,82.46
2023-02-19T04:16:02.035Z,82.73
2023-02-19T04:18:34.032Z,82.88
2023-02-19T04:21:05.823Z,83.06
2023-02-19T04:23:38.756Z,83.05
2023-02-19T04:26:08.011Z,82.84
2023-02-19T04:28:38.450Z,82.92
2023-02-19T04:31:09.541Z,82.83
2023-02-19T04:33:40.162Z,82.99
2023-02-19T04:36:12.701Z,82.62
2023-02-19T04:38:43.035Z,82.42
2023-02-19T04:41:13.392Z,82.15
2023-02-19T04:43:43.692Z,81.93
2023-02-19T04:46:14.029Z,82.02
2023-02-19T04:48:44.358Z,82.08
2023-02-19T04:51:14.698Z,81.99
2023-02-19T04:53:45.209Z,81.73
2023-02-19T04:56:17.379Z,81.68
2023-02-19T04:58:48.193Z,81.52
2023-02-19T05:01:18.722Z,81.39
2023-02-19T05:03:49.268Z,81.40
2023-02-19T05:06:19.623Z,81.12
2023-02-19T05:08:49.909Z,80.94
2023-02-19T05:11:20.470Z,80.65
2023-02-19T05:13:50.776Z,80.43
2023-02-19T05:16:21.220Z,80.20
2023-02-19T05:18:51.685Z,80.05
2023-02-19T05:21:22.030Z,80.09
2023-02-19T05:23:52.348Z,80.08
2023-02-19T05:26:24.503Z,79.89
2023-02-19T05:28:55.786Z,79.76
2023-02-19T05:31:26.330Z,79.54
2023-02-19T05:33:57.318Z,79.80
2023-02-19T05:36:27.709Z,79.75
2023-02-19T05:38:59.182Z,79.63
2023-02-19T05:41:31.031Z,79.51
2023-02-19T05:44:01.321Z,79.58
2023-02-19T05:46:32.332Z,79.50
2023-02-19T05:49:03.256Z,79.40
2023-02-19T05:51:34.019Z,79.38
2023-02-19T05:54:04.513Z,79.44
2023-02-19T05:56:36.422Z,79.60
2023-02-19T05:59:09.884Z,79.69
2023-02-19T06:01:40.245Z,79.88
2023-02-19T06:04:11.232Z,80.14
2023-02-19T06:06:41.917Z,80.03
2023-02-19T06:09:12.991Z,80.11
2023-02-19T06:11:44.046Z,80.26
2023-02-19T06:14:15.214Z,80.30
2023-02-19T06:16:49.161Z,80.36
2023-02-19T06:19:19.703Z,80.66
2023-02-19T06:21:52.159Z,80.81
2023-02-19T06:24:22.479Z,80.90
2023-02-19T06:26:52.812Z,80.83
2023-02-19T06:29:23.122Z,80.69
2023-02-19T06:31:53.776Z,80.63
2023-02-19T06:34:24.106Z,80.56
2023-02-19T06:36:54.555Z,80.67
2023-02-19T06:39:24.906Z,80.52
2023-02-19T06:41:57.359Z,80.43
2023-02-19T06:44:27.673Z,80.17
2023-02-19T06:46:58.109Z,80.15
2023-02-19T06:49:28.641Z,79.91
2023-02-19T06:52:00.501Z,79.96
2023-02-19T06:54:31.457Z,79.67
2023-02-19T06:57:02.177Z,79.72
2023-02-19T06:59:32.453Z,79.77
2023-02-19T07:02:02.755Z,79.71
2023-02-19T07:04:33.172Z,79.79
2023-02-19T07:07:03.645Z,79.90
2023-02-19T07:09:33.998Z,80.05
2023-02-19T07:12:05.174Z,80.30
2023-02-19T07:14:35.866Z,80.27
2023-02-19T07:17:06.221Z,80.60
2023-02-19T07:19:36.544Z,80.65
2023-02-19T07:22:06.952Z,80.72
2023-02-19T07:24:37.258Z,80.62
2023-02-19T07:27:07.578Z,80.58
2023-02-19T07:29:38.510Z,80.65
2023-02-19T07:32:08.961Z,80.57
2023-02-19T07:34:39.405Z,80.48
2023-02-19T07:37:09.675Z,80.47
2023-02-19T07:39:40.005Z,80.49
2023-02-19T07:42:10.408Z,80.23
2023-02-19T07:44:41.446Z,80.36
2023-02-19T07:47:11.825Z,80.32
2023-02-19T07:49:42.193Z,80.16
2023-02-19T07:52:12.728Z,80.24
2023-02-19T07:54:44.789Z,80.35
2023-02-19T07:57:15.531Z,80.49
2023-02-19T07:59:45.896Z,80.14
2023-02-19T08:02:37.666Z,80.01
2023-02-19T08:05:09.004Z,80.06
2023-02-19T08:07:39.488Z,79.86
2023-02-19T08:10:33.611Z,79.37
2023-02-19T08:13:21.908Z,79.49
2023-02-19T08:15:55.115Z,79.75
2023-02-19T08:18:28.676Z,79.78
2023-02-19T08:21:00.046Z,80.21
2023-02-19T08:23:30.872Z,80.55
2023-02-19T08:26:02.547Z,80.93
2023-02-19T08:28:32.951Z,81.26
2023-02-19T08:31:05.469Z,81.64
2023-02-19T08:33:36.403Z,81.77
2023-02-19T08:36:08.872Z,81.78
2023-02-19T08:38:39.804Z,81.59
2023-02-19T08:41:12.073Z,81.20
2023-02-19T08:43:43.134Z,81.16
2023-02-19T08:46:14.088Z,80.96
2023-02-19T08:48:44.488Z,80.81
2023-02-19T08:51:15.153Z,80.50
2023-02-19T08:53:46.744Z,80.53
2023-02-19T08:56:18.575Z,80.38
2023-02-19T08:58:48.944Z,79.81
2023-02-19T09:01:20.765Z,79.14
2023-02-19T09:03:51.310Z,78.76
2023-02-19T09:06:22.320Z,78.17
2023-02-19T09:08:52.720Z,77.63
2023-02-19T09:11:23.699Z,77.70
2023-02-19T09:13:56.402Z,77.34
2023-02-19T09:16:26.760Z,76.19
2023-02-19T09:18:57.229Z,76.24
2023-02-19T09:21:27.688Z,76.24
2023-02-19T09:23:58.055Z,76.95
2023-02-19T09:26:28.517Z,76.95
2023-02-19T09:28:58.865Z,77.45
2023-02-19T09:31:29.560Z,77.80
2023-02-19T09:33:59.995Z,78.26
2023-02-19T09:36:30.403Z,78.48
2023-02-19T09:39:02.000Z,78.87
2023-02-19T09:41:36.745Z,78.96
2023-02-19T09:44:12.218Z,79.45
2023-02-19T09:46:46.741Z,79.58
2023-02-19T09:49:22.139Z,80.03
2023-02-19T09:51:56.774Z,79.91
2023-02-19T09:54:31.110Z,80.11
2023-02-19T09:57:04.801Z,80.30
2023-02-19T09:59:42.143Z,80.80
2023-02-19T10:02:18.793Z,81.25
2023-02-19T10:04:52.821Z,81.52
2023-02-19T10:07:26.643Z,81.44
2023-02-19T10:09:59.879Z,81.71
2023-02-19T10:12:35.805Z,82.22
2023-02-19T10:15:16.398Z,82.40
2023-02-19T10:17:47.845Z,82.30
2023-02-19T10:20:24.951Z,82.50
2023-02-19T10:23:01.898Z,82.67
2023-02-19T10:25:34.905Z,82.77
2023-02-19T10:28:08.053Z,83.23
2023-02-19T10:30:40.128Z,82.97
2023-02-19T10:33:14.850Z,82.76
2023-02-19T10:35:56.951Z,83.13
2023-02-19T10:45:21.321Z,82.32
2023-02-19T10:47:52.069Z,82.14
2023-02-19T10:50:29.217Z,82.29
2023-02-19T10:53:00.975Z,82.31
2023-02-19T10:55:36.752Z,82.74
2023-02-19T10:58:27.863Z,82.90
2023-02-19T11:01:15.652Z,82.58
2023-02-19T11:03:48.121Z,82.88
2023-02-19T11:06:24.948Z,83.06
2023-02-19T11:09:01.643Z,83.54
2023-02-19T11:11:46.144Z,83.41
2023-02-19T11:14:19.454Z,83.25
2023-02-19T11:16:52.299Z,83.44
2023-02-19T11:19:42.375Z,83.13
2023-02-19T11:22:28.557Z,83.06
2023-02-19T11:24:59.624Z,82.80
2023-02-19T11:27:30.055Z,82.80
2023-02-19T11:30:34.479Z,82.12
2023-02-19T11:33:31.980Z,81.90
2023-02-19T11:36:30.270Z,81.92
2023-02-19T11:39:04.264Z,80.96
2023-02-19T11:42:03.924Z,80.61
2023-02-19T11:44:43.934Z,80.16
2023-02-19T11:47:37.260Z,80.79
2023-02-19T11:50:15.628Z,80.99
2023-02-19T11:52:53.936Z,80.59
2023-02-19T11:55:45.919Z,79.92
2023-02-19T11:58:56.226Z,79.43
2023-02-19T12:01:36.059Z,79.14
2023-02-19T12:04:37.760Z,79.73
2023-02-19T12:07:18.441Z,79.13
2023-02-19T12:10:01.710Z,79.15
2023-02-19T12:12:52.973Z,79.21
2023-02-19T12:16:11.319Z,79.66
2023-02-19T12:19:13.627Z,80.10
2023-02-19T12:22:20.945Z,79.45
2023-02-19T12:25:37.172Z,79.29
2023-02-19T12:28:43.053Z,79.65
2023-02-19T12:34:52.422Z,80.09
2023-02-19T12:37:48.208Z,80.09
2023-02-19T12:40:28.107Z,80.11
2023-02-19T12:43:06.660Z,80.20
2023-02-19T12:45:41.377Z,80.18
2023-02-19T12:48:16.246Z,80.14
2023-02-19T12:50:48.956Z,80.12
2023-02-19T12:53:29.339Z,79.62
2023-02-19T12:56:00.186Z,79.30
2023-02-19T12:58:33.518Z,78.07
2023-02-19T13:01:04.450Z,77.96
2023-02-19T13:03:39.066Z,78.22
2023-02-19T13:06:24.839Z,77.58
2023-02-19T13:09:06.458Z,77.33
2023-02-19T13:11:39.753Z,77.95
2023-02-19T13:15:16.056Z,78.60
2023-02-19T13:17:59.882Z,79.12
2023-02-19T13:20:34.211Z,78.59
2023-02-19T13:23:22.988Z,78.34
2023-02-19T13:26:10.432Z,78.68
2023-02-19T13:28:50.180Z,78.46
2023-02-19T13:31:42.951Z,78.58
2023-02-19T13:34:21.663Z,77.84
2023-02-19T13:36:52.347Z,76.81
2023-02-19T13:39:23.374Z,76.25
2023-02-19T13:42:05.732Z,76.30
2023-02-19T13:44:36.606Z,76.09
2023-02-19T13:47:07.736Z,76.05
2023-02-19T13:49:47.063Z,75.57
2023-02-19T13:52:43.471Z,74.62
2023-02-19T13:55:48.476Z,75.32
2023-02-19T13:58:49.871Z,75.06
2023-02-19T14:01:20.253Z,74.93
2023-02-19T14:03:56.063Z,74.76
2023-02-19T14:06:28.723Z,74.29
2023-02-19T14:09:00.412Z,74.65
2023-02-19T14:12:04.178Z,75.17
2023-02-19T14:14:39.421Z,75.58
2023-02-19T14:17:29.744Z,75.67
2023-02-19T14:20:01.979Z,76.12
2023-02-19T14:23:01.436Z,76.60
2023-02-19T14:25:38.179Z,76.48
2023-02-19T14:28:17.915Z,75.61
2023-02-19T14:30:51.791Z,75.87
2023-02-19T14:33:25.066Z,75.36
2023-02-19T14:35:59.268Z,74.45
2023-02-19T14:38:31.460Z,73.54
2023-02-19T14:41:01.996Z,73.33
2023-02-19T14:43:33.419Z,73.99
2023-02-19T14:46:08.335Z,74.21
2023-02-19T14:48:40.918Z,73.89
2023-02-19T14:51:17.776Z,73.59
2023-02-19T14:53:48.222Z,73.70
2023-02-19T14:56:22.398Z,73.81
2023-02-19T14:59:10.165Z,73.63
2023-02-19T15:01:40.908Z,73.18
2023-02-19T15:04:24.145Z,73.57
2023-02-19T15:06:56.982Z,73.29
2023-02-19T15:09:34.390Z,73.44
2023-02-19T15:12:06.089Z,73.57
2023-02-19T15:14:36.642Z,73.03
2023-02-19T15:17:07.973Z,73.39
2023-02-19T15:19:39.635Z,73.55
2023-02-19T15:22:15.359Z,74.25
2023-02-19T15:24:48.660Z,74.46
2023-02-19T15:27:23.035Z,75.22
2023-02-19T15:29:54.553Z,75.31
2023-02-19T15:32:27.105Z,75.47
2023-02-19T15:34:58.920Z,75.52
2023-02-19T15:37:30.354Z,75.82
2023-02-19T15:40:02.251Z,75.93
2023-02-19T15:42:34.922Z,75.72
2023-02-19T15:45:12.264Z,75.84
2023-02-19T15:47:46.690Z,75.44
2023-02-19T15:50:18.686Z,75.21
2023-02-19T15:52:51.447Z,75.33
2023-02-19T15:55:30.100Z,75.39
2023-02-19T15:58:08.553Z,75.56
2023-02-19T16:00:43.184Z,75.41
2023-02-19T16:03:19.755Z,75.51
2023-02-19T16:06:00.534Z,75.80
2023-02-19T16:08:33.148Z,75.85
2023-02-19T16:11:05.387Z,76.19
2023-02-19T16:13:36.939Z,76.17
2023-02-19T16:16:17.106Z,76.43
2023-02-19T16:18:49.753Z,76.31
2023-02-19T16:21:23.142Z,76.60
2023-02-19T16:23:59.858Z,76.60
2023-02-19T16:26:31.820Z,76.89
2023-02-19T16:29:02.173Z,77.08
2023-02-19T16:31:32.623Z,77.24
2023-02-19T16:34:19.435Z,77.37
2023-02-19T16:36:49.962Z,77.43
2023-02-19T16:39:22.172Z,77.68
2023-02-19T16:42:19.203Z,77.84
2023-02-19T16:44:50.203Z,78.11
2023-02-19T16:47:27.702Z,78.34
2023-02-19T16:50:00.013Z,78.70
2023-02-19T16:52:31.116Z,78.87
2023-02-19T16:55:01.757Z,79.20
2023-02-19T16:57:32.369Z,79.59
2023-02-19T17:00:02.689Z,79.65
2023-02-19T17:02:33.389Z,79.63
2023-02-19T17:05:04.220Z,79.59
2023-02-19T17:07:34.553Z,79.54
2023-02-19T17:10:05.073Z,79.54
2023-02-19T17:12:35.781Z,79.47
2023-02-19T17:15:06.508Z,79.23
2023-02-19T17:17:36.802Z,79.11
2023-02-19T17:20:20.422Z,79.06
2023-02-19T17:22:49.238Z,79.11
2023-02-19T17:25:19.690Z,79.19
2023-02-19T17:27:50.221Z,79.28
2023-02-19T17:30:24.920Z,79.51
2023-02-19T17:32:55.300Z,79.89
2023-02-19T17:35:25.792Z,80.07
2023-02-19T17:37:56.107Z,80.42
2023-02-19T17:40:33.057Z,80.81
2023-02-19T17:43:04.181Z,81.04
2023-02-19T17:48:28.855Z,81.22
2023-02-19T17:50:59.824Z,81.23
2023-02-19T17:53:30.642Z,81.32
2023-02-19T17:56:00.938Z,81.29
2023-02-19T17:58:31.241Z,81.16
2023-02-19T18:01:01.810Z,81.04
2023-02-19T18:03:32.174Z,81.06
2023-02-19T18:06:02.523Z,80.89
2023-02-19T18:08:35.258Z,80.98
2023-02-19T18:11:07.284Z,80.96
2023-02-19T18:13:37.801Z,81.03
2023-02-19T18:16:09.979Z,81.20
2023-02-19T18:18:40.432Z,81.38
2023-02-19T18:21:12.476Z,81.59
2023-02-19T18:23:48.141Z,81.52
2023-02-19T18:26:24.627Z,81.63
2023-02-19T18:28:55.089Z,81.59
2023-02-19T18:31:28.277Z,81.72
2023-02-19T18:33:58.788Z,81.89
2023-02-19T18:36:29.257Z,82.05
2023-02-19T18:39:00.910Z,81.88
2023-02-19T18:41:31.670Z,82.01
2023-02-19T18:44:02.228Z,82.02
2023-02-19T18:46:33.087Z,82.05
2023-02-19T18:49:09.480Z,82.32
2023-02-19T18:51:41.408Z,82.38
2023-02-19T18:54:12.056Z,82.38
2023-02-19T18:56:46.860Z,82.28
2023-02-19T18:59:17.616Z,82.30
2023-02-19T19:01:48.294Z,82.52
2023-02-19T19:04:18.786Z,82.50
2023-02-19T19:06:49.172Z,82.47
2023-02-19T19:09:19.533Z,82.36
2023-02-19T19:11:49.845Z,82.18
2023-02-19T19:14:20.158Z,82.19
2023-02-19T19:16:51.023Z,82.17
2023-02-19T19:19:24.382Z,82.12
2023-02-19T19:21:56.445Z,82.12
2023-02-19T19:24:27.810Z,82.07
2023-02-19T19:27:01.351Z,82.12
2023-02-19T19:29:33.482Z,82.02
2023-02-19T19:32:08.191Z,81.92
2023-02-19T19:34:42.862Z,81.83
2023-02-19T19:37:14.295Z,81.70
2023-02-19T19:39:51.084Z,81.83
2023-02-19T19:42:24.351Z,81.89
2023-02-19T19:45:00.332Z,81.91
2023-02-19T19:47:33.196Z,81.93
2023-02-19T19:50:06.309Z,82.02
2023-02-19T19:52:40.091Z,81.74
2023-02-19T19:55:16.276Z,81.78
2023-02-19T19:57:50.217Z,81.96
2023-02-19T20:00:25.082Z,81.87
2023-02-19T20:02:56.881Z,81.93
2023-02-19T20:05:29.066Z,81.93
2023-02-19T20:08:01.199Z,81.64
2023-02-19T20:10:34.261Z,81.72
2023-02-19T20:13:07.077Z,81.50
2023-02-19T20:15:38.168Z,81.33
2023-02-19T20:18:10.903Z,81.34
2023-02-19T20:20:43.722Z,81.37
2023-02-19T20:23:15.864Z,81.34
2023-02-19T20:25:47.116Z,81.12
2023-02-19T20:28:18.443Z,81.03
2023-02-19T20:30:51.171Z,80.99
2023-02-19T20:33:23.500Z,81.05
2023-02-19T20:35:56.891Z,81.18
2023-02-19T20:46:16.476Z,80.84
2023-02-19T20:48:47.252Z,80.95
2023-02-19T20:51:17.647Z,80.98
2023-02-19T20:53:48.628Z,80.92
2023-02-19T20:56:19.119Z,80.84
2023-02-19T20:58:49.494Z,80.83
2023-02-19T21:01:19.868Z,80.60
2023-02-19T21:03:50.395Z,80.73
2023-02-19T21:06:20.707Z,80.59
2023-02-19T21:08:51.019Z,80.57
2023-02-19T21:11:21.553Z,80.50
2023-02-19T21:13:51.953Z,80.15
2023-02-19T21:16:22.703Z,79.91
2023-02-19T21:18:53.078Z,79.76
2023-02-19T21:21:26.269Z,79.63
2023-02-19T21:23:57.879Z,79.44
2023-02-19T21:26:35.491Z,79.42
2023-02-19T21:29:06.626Z,79.25
2023-02-19T21:31:41.680Z,79.25
2023-02-19T21:34:14.082Z,79.23
2023-02-19T21:36:45.339Z,79.16
2023-02-19T21:39:17.302Z,79.20
2023-02-19T21:41:47.965Z,79.14
2023-02-19T21:44:18.727Z,79.26
2023-02-19T21:46:49.184Z,79.29
2023-02-19T21:49:20.033Z,79.36
2023-02-19T21:51:50.438Z,79.30
2023-02-19T21:54:24.563Z,79.31
2023-02-19T21:56:56.236Z,79.23
2023-02-19T21:59:26.618Z,79.09
2023-02-19T22:01:57.687Z,79.00
2023-02-19T22:04:28.039Z,78.77
2023-02-19T22:06:58.906Z,78.27
2023-02-19T22:09:29.560Z,78.09
2023-02-19T22:12:00.113Z,78.23
2023-02-19T22:14:30.425Z,77.87
2023-02-19T22:17:00.738Z,77.79
2023-02-19T22:19:31.076Z,77.57
2023-02-19T22:22:01.402Z,77.66
2023-02-19T22:24:31.740Z,77.38
2023-02-19T22:27:02.113Z,77.09
2023-02-19T22:29:32.605Z,76.95
2023-02-19T22:32:03.165Z,76.88
2023-02-19T22:34:33.552Z,76.97
2023-02-19T22:37:03.921Z,77.11
2023-02-19T22:39:34.349Z,77.05
2023-02-19T22:42:05.005Z,76.68
2023-02-19T22:44:35.384Z,76.65
2023-02-19T22:47:05.866Z,76.60
2023-02-19T22:49:38.395Z,76.22
2023-02-19T22:52:10.764Z,76.33
2023-02-19T22:54:41.562Z,76.42
2023-02-19T22:57:11.909Z,76.27
2023-02-19T22:59:42.279Z,76.19
2023-02-19T23:02:13.125Z,76.24
2023-02-19T23:04:43.480Z,76.15
2023-02-19T23:07:13.791Z,76.24
2023-02-19T23:09:44.114Z,76.35
2023-02-19T23:12:14.600Z,76.38
2023-02-19T23:14:47.000Z,76.51
2023-02-19T23:17:17.400Z,76.58
2023-02-19T23:19:47.780Z,76.66
2023-02-19T23:22:18.250Z,76.80
2023-02-19T23:24:48.598Z,76.94
2023-02-19T23:27:19.012Z,77.15
2023-02-19T23:29:49.459Z,77.35
2023-02-19T23:32:21.173Z,77.42
2023-02-19T23:34:51.893Z,77.58
2023-02-19T23:37:22.252Z,77.74
2023-02-19T23:39:52.646Z,77.96
2023-02-19T23:42:22.983Z,78.18
2023-02-19T23:44:53.782Z,78.21
2023-02-19T23:47:26.611Z,78.46
2023-02-19T23:49:57.151Z,78.65
2023-02-19T23:52:27.778Z,78.85
2023-02-19T23:54:59.767Z,78.96
2023-02-19T23:57:30.183Z,79.09
